sensor_id;sensor_type;location;lat;lon;timestamp;temperature;humidity
2825;DHT22;1420;51.324;12.344;2023-08-17T00:02:16;21.60;99.90
2825;DHT22;1420;51.324;12.344;2023-08-17T00:04:43;21.60;99.90
2825;DHT22;1420;51.324;12.344;2023-08-17T00:07:10;21.50;99.90
2825;DHT22;1420;51.324;12.344;2023-08-17T00:09:38;21.50;99.90
2825;DHT22;1420;51.324;12.344;2023-08-17T00:12:06;21.40;99.90
2825;DHT22;1420;51.324;12.344;2023-08-17T00:14:32;21.50;99.90
2825;DHT22;1420;51.324;12.344;2023-08-17T00:16:59;21.50;99.90
2825;DHT22;1420;51.324;12.344;2023-08-17T00:19:27;21.50;99.90
2825;DHT22;1420;51.324;12.344;2023-08-17T00:21:54;21.50;99.90
2825;DHT22;1420;51.324;12.344;2023-08-17T00:24:21;21.50;99.90
2825;DHT22;1420;51.324;12.344;2023-08-17T00:26:48;21.50;99.90
2825;DHT22;1420;51.324;12.344;2023-08-17T00:29:15;21.60;99.90
2825;DHT22;1420;51.324;12.344;2023-08-17T00:31:43;21.50;99.90
2825;DHT22;1420;51.324;12.344;2023-08-17T00:34:10;21.50;99.90
2825;DHT22;1420;51.324;12.344;2023-08-17T00:36:37;21.40;99.90
2825;DHT22;1420;51.324;12.344;2023-08-17T00:39:04;21.40;99.90
2825;DHT22;1420;51.324;12.344;2023-08-17T00:41:31;21.40;99.90
2825;DHT22;1420;51.324;12.344;2023-08-17T00:43:59;21.40;99.90
2825;DHT22;1420;51.324;12.344;2023-08-17T00:46:26;21.30;99.90
2825;DHT22;1420;51.324;12.344;2023-08-17T00:48:54;21.30;99.90
2825;DHT22;1420;51.324;12.344;2023-08-17T00:51:23;21.30;99.90
2825;DHT22;1420;51.324;12.344;2023-08-17T00:53:51;21.20;99.90
2825;DHT22;1420;51.324;12.344;2023-08-17T00:56:18;21.20;99.90
2825;DHT22;1420;51.324;12.344;2023-08-17T00:58:46;21.40;99.90
2825;DHT22;1420;51.324;12.344;2023-08-17T01:01:13;21.40;99.90
2825;DHT22;1420;51.324;12.344;2023-08-17T01:03:40;21.30;99.90
2825;DHT22;1420;51.324;12.344;2023-08-17T01:06:08;21.30;99.90
2825;DHT22;1420;51.324;12.344;2023-08-17T01:08:36;21.20;99.90
2825;DHT22;1420;51.324;12.344;2023-08-17T01:11:27;21.20;99.90
2825;DHT22;1420;51.324;12.344;2023-08-17T01:13:58;21.30;99.90
2825;DHT22;1420;51.324;12.344;2023-08-17T01:16:26;21.20;99.90
2825;DHT22;1420;51.324;12.344;2023-08-17T01:18:52;21.30;99.90
2825;DHT22;1420;51.324;12.344;2023-08-17T01:21:20;21.20;99.90
2825;DHT22;1420;51.324;12.344;2023-08-17T01:23:48;21.20;99.90
2825;DHT22;1420;51.324;12.344;2023-08-17T01:26:16;21.10;99.90
2825;DHT22;1420;51.324;12.344;2023-08-17T01:28:44;21.00;99.90
2825;DHT22;1420;51.324;12.344;2023-08-17T01:31:19;21.00;99.90
2825;DHT22;1420;51.324;12.344;2023-08-17T01:33:45;21.00;99.90
2825;DHT22;1420;51.324;12.344;2023-08-17T01:36:14;21.00;99.90
2825;DHT22;1420;51.324;12.344;2023-08-17T01:38:40;20.90;99.90
2825;DHT22;1420;51.324;12.344;2023-08-17T01:41:09;20.80;99.90
2825;DHT22;1420;51.324;12.344;2023-08-17T01:43:36;20.70;99.90
2825;DHT22;1420;51.324;12.344;2023-08-17T01:46:03;20.70;99.90
2825;DHT22;1420;51.324;12.344;2023-08-17T01:48:31;20.70;99.90
2825;DHT22;1420;51.324;12.344;2023-08-17T01:50:59;20.70;99.90
2825;DHT22;1420;51.324;12.344;2023-08-17T01:53:27;20.70;99.90
2825;DHT22;1420;51.324;12.344;2023-08-17T01:55:54;20.70;99.90
2825;DHT22;1420;51.324;12.344;2023-08-17T01:58:21;20.80;99.90
2825;DHT22;1420;51.324;12.344;2023-08-17T02:00:48;21.10;99.90
2825;DHT22;1420;51.324;12.344;2023-08-17T02:03:15;21.30;99.90
2825;DHT22;1420;51.324;12.344;2023-08-17T02:05:45;21.40;99.90
2825;DHT22;1420;51.324;12.344;2023-08-17T02:08:12;21.50;99.90
2825;DHT22;1420;51.324;12.344;2023-08-17T02:10:40;21.50;99.90
2825;DHT22;1420;51.324;12.344;2023-08-17T02:13:07;21.50;99.90
2825;DHT22;1420;51.324;12.344;2023-08-17T02:15:37;21.60;99.90
2825;DHT22;1420;51.324;12.344;2023-08-17T02:18:01;21.20;99.90
2825;DHT22;1420;51.324;12.344;2023-08-17T02:20:29;21.00;99.90
2825;DHT22;1420;51.324;12.344;2023-08-17T02:22:56;20.90;99.90
2825;DHT22;1420;51.324;12.344;2023-08-17T02:25:23;20.80;99.90
2825;DHT22;1420;51.324;12.344;2023-08-17T02:27:50;20.60;99.90
2825;DHT22;1420;51.324;12.344;2023-08-17T02:30:17;20.60;99.90
2825;DHT22;1420;51.324;12.344;2023-08-17T02:32:45;20.60;99.90
2825;DHT22;1420;51.324;12.344;2023-08-17T02:35:13;20.40;99.90
2825;DHT22;1420;51.324;12.344;2023-08-17T02:37:40;20.30;99.90
2825;DHT22;1420;51.324;12.344;2023-08-17T02:40:07;20.10;99.90
2825;DHT22;1420;51.324;12.344;2023-08-17T02:42:35;19.90;99.90
2825;DHT22;1420;51.324;12.344;2023-08-17T02:45:02;19.80;99.90
2825;DHT22;1420;51.324;12.344;2023-08-17T02:47:29;19.80;99.90
2825;DHT22;1420;51.324;12.344;2023-08-17T02:49:56;19.70;99.90
2825;DHT22;1420;51.324;12.344;2023-08-17T02:52:24;20.10;99.90
2825;DHT22;1420;51.324;12.344;2023-08-17T02:54:51;20.30;99.90
2825;DHT22;1420;51.324;12.344;2023-08-17T02:57:18;20.10;99.90
2825;DHT22;1420;51.324;12.344;2023-08-17T02:59:45;20.10;99.90
2825;DHT22;1420;51.324;12.344;2023-08-17T03:02:12;19.70;99.90
2825;DHT22;1420;51.324;12.344;2023-08-17T03:04:41;19.90;99.90
2825;DHT22;1420;51.324;12.344;2023-08-17T03:07:08;19.80;99.90
2825;DHT22;1420;51.324;12.344;2023-08-17T03:09:35;19.70;99.90
2825;DHT22;1420;51.324;12.344;2023-08-17T03:12:02;19.60;99.90
2825;DHT22;1420;51.324;12.344;2023-08-17T03:14:30;19.60;99.90
2825;DHT22;1420;51.324;12.344;2023-08-17T03:16:57;19.80;99.90
2825;DHT22;1420;51.324;12.344;2023-08-17T03:19:25;19.50;99.90
2825;DHT22;1420;51.324;12.344;2023-08-17T03:21:53;19.30;99.90
2825;DHT22;1420;51.324;12.344;2023-08-17T03:24:20;19.20;99.90
2825;DHT22;1420;51.324;12.344;2023-08-17T03:26:47;19.00;99.90
2825;DHT22;1420;51.324;12.344;2023-08-17T03:29:14;18.80;99.90
2825;DHT22;1420;51.324;12.344;2023-08-17T03:31:42;18.60;99.90
2825;DHT22;1420;51.324;12.344;2023-08-17T03:34:09;18.60;99.90
2825;DHT22;1420;51.324;12.344;2023-08-17T03:36:36;18.50;99.90
2825;DHT22;1420;51.324;12.344;2023-08-17T03:39:04;18.50;99.90
2825;DHT22;1420;51.324;12.344;2023-08-17T03:41:31;18.40;99.90
2825;DHT22;1420;51.324;12.344;2023-08-17T03:43:58;18.40;99.90
2825;DHT22;1420;51.324;12.344;2023-08-17T03:46:26;18.40;99.90
2825;DHT22;1420;51.324;12.344;2023-08-17T03:48:53;18.50;99.90
2825;DHT22;1420;51.324;12.344;2023-08-17T03:51:20;18.40;99.90
2825;DHT22;1420;51.324;12.344;2023-08-17T03:53:47;18.40;99.90
2825;DHT22;1420;51.324;12.344;2023-08-17T03:56:14;18.40;99.90
2825;DHT22;1420;51.324;12.344;2023-08-17T03:58:42;18.40;99.90
2825;DHT22;1420;51.324;12.344;2023-08-17T04:01:09;18.40;99.90
2825;DHT22;1420;51.324;12.344;2023-08-17T04:03:36;18.50;99.90
2825;DHT22;1420;51.324;12.344;2023-08-17T04:06:05;18.50;99.90
2825;DHT22;1420;51.324;12.344;2023-08-17T04:08:31;18.80;99.90
2825;DHT22;1420;51.324;12.344;2023-08-17T04:10:58;19.20;99.90
2825;DHT22;1420;51.324;12.344;2023-08-17T04:13:26;19.40;99.90
2825;DHT22;1420;51.324;12.344;2023-08-17T04:15:53;19.40;99.90
2825;DHT22;1420;51.324;12.344;2023-08-17T04:18:20;19.00;99.90
2825;DHT22;1420;51.324;12.344;2023-08-17T04:20:47;18.60;99.90
2825;DHT22;1420;51.324;12.344;2023-08-17T04:23:14;18.50;99.90
2825;DHT22;1420;51.324;12.344;2023-08-17T04:25:43;18.40;99.90
2825;DHT22;1420;51.324;12.344;2023-08-17T04:28:09;18.30;99.90
2825;DHT22;1420;51.324;12.344;2023-08-17T04:30:37;18.20;99.90
2825;DHT22;1420;51.324;12.344;2023-08-17T04:33:03;18.20;99.90
2825;DHT22;1420;51.324;12.344;2023-08-17T04:35:31;18.20;99.90
2825;DHT22;1420;51.324;12.344;2023-08-17T04:37:58;18.20;99.90
2825;DHT22;1420;51.324;12.344;2023-08-17T04:40:25;18.30;99.90
2825;DHT22;1420;51.324;12.344;2023-08-17T04:42:53;18.30;99.90
2825;DHT22;1420;51.324;12.344;2023-08-17T04:45:20;18.20;99.90
2825;DHT22;1420;51.324;12.344;2023-08-17T04:47:47;18.30;99.90
2825;DHT22;1420;51.324;12.344;2023-08-17T04:50:14;18.30;99.90
2825;DHT22;1420;51.324;12.344;2023-08-17T04:52:43;18.40;99.90
2825;DHT22;1420;51.324;12.344;2023-08-17T04:55:10;18.40;99.90
2825;DHT22;1420;51.324;12.344;2023-08-17T04:57:37;18.50;99.90
2825;DHT22;1420;51.324;12.344;2023-08-17T05:00:06;18.50;99.90
2825;DHT22;1420;51.324;12.344;2023-08-17T05:02:36;18.40;99.90
2825;DHT22;1420;51.324;12.344;2023-08-17T05:05:04;18.60;99.90
2825;DHT22;1420;51.324;12.344;2023-08-17T05:07:30;18.50;99.90
2825;DHT22;1420;51.324;12.344;2023-08-17T05:09:57;18.60;99.90
2825;DHT22;1420;51.324;12.344;2023-08-17T05:12:24;18.60;99.90
2825;DHT22;1420;51.324;12.344;2023-08-17T05:14:52;18.70;99.90
2825;DHT22;1420;51.324;12.344;2023-08-17T05:17:19;18.70;99.90
2825;DHT22;1420;51.324;12.344;2023-08-17T05:19:46;18.70;99.90
2825;DHT22;1420;51.324;12.344;2023-08-17T05:22:13;18.70;99.90
2825;DHT22;1420;51.324;12.344;2023-08-17T05:24:40;18.80;99.90
2825;DHT22;1420;51.324;12.344;2023-08-17T05:27:08;18.80;99.90
2825;DHT22;1420;51.324;12.344;2023-08-17T05:29:35;18.80;99.90
2825;DHT22;1420;51.324;12.344;2023-08-17T05:32:02;18.90;99.90
2825;DHT22;1420;51.324;12.344;2023-08-17T05:34:29;18.90;99.90
2825;DHT22;1420;51.324;12.344;2023-08-17T05:36:57;18.90;99.90
2825;DHT22;1420;51.324;12.344;2023-08-17T05:39:24;18.90;99.90
2825;DHT22;1420;51.324;12.344;2023-08-17T05:41:52;18.90;99.90
2825;DHT22;1420;51.324;12.344;2023-08-17T05:44:20;19.00;99.90
2825;DHT22;1420;51.324;12.344;2023-08-17T05:46:48;19.10;99.90
2825;DHT22;1420;51.324;12.344;2023-08-17T05:49:15;19.00;99.90
2825;DHT22;1420;51.324;12.344;2023-08-17T05:51:42;19.10;99.90
2825;DHT22;1420;51.324;12.344;2023-08-17T05:54:10;19.10;99.90
2825;DHT22;1420;51.324;12.344;2023-08-17T05:56:37;19.00;99.90
2825;DHT22;1420;51.324;12.344;2023-08-17T05:59:04;19.20;99.90
2825;DHT22;1420;51.324;12.344;2023-08-17T06:01:32;19.00;99.90
2825;DHT22;1420;51.324;12.344;2023-08-17T06:04:00;19.00;99.90
2825;DHT22;1420;51.324;12.344;2023-08-17T06:06:28;19.00;99.90
2825;DHT22;1420;51.324;12.344;2023-08-17T06:08:56;19.00;99.90
2825;DHT22;1420;51.324;12.344;2023-08-17T06:11:24;19.00;99.90
2825;DHT22;1420;51.324;12.344;2023-08-17T06:13:51;19.00;99.90
2825;DHT22;1420;51.324;12.344;2023-08-17T06:16:18;19.10;99.90
2825;DHT22;1420;51.324;12.344;2023-08-17T06:18:45;19.10;99.90
2825;DHT22;1420;51.324;12.344;2023-08-17T06:21:12;19.10;99.90
2825;DHT22;1420;51.324;12.344;2023-08-17T06:23:40;19.10;99.90
2825;DHT22;1420;51.324;12.344;2023-08-17T06:26:07;19.20;99.90
2825;DHT22;1420;51.324;12.344;2023-08-17T06:28:34;19.30;99.90
2825;DHT22;1420;51.324;12.344;2023-08-17T06:31:01;19.20;99.90
2825;DHT22;1420;51.324;12.344;2023-08-17T06:33:28;19.30;99.90
2825;DHT22;1420;51.324;12.344;2023-08-17T06:35:56;19.40;99.90
2825;DHT22;1420;51.324;12.344;2023-08-17T06:38:24;19.70;99.90
2825;DHT22;1420;51.324;12.344;2023-08-17T06:40:52;19.90;99.90
2825;DHT22;1420;51.324;12.344;2023-08-17T06:43:20;20.00;99.90
2825;DHT22;1420;51.324;12.344;2023-08-17T06:45:48;20.10;99.90
2825;DHT22;1420;51.324;12.344;2023-08-17T06:48:16;20.30;99.90
2825;DHT22;1420;51.324;12.344;2023-08-17T06:50:43;20.70;99.90
2825;DHT22;1420;51.324;12.344;2023-08-17T06:53:11;21.30;99.90
2825;DHT22;1420;51.324;12.344;2023-08-17T06:55:39;21.90;99.90
2825;DHT22;1420;51.324;12.344;2023-08-17T06:58:07;21.90;99.90
2825;DHT22;1420;51.324;12.344;2023-08-17T07:00:34;22.50;99.90
2825;DHT22;1420;51.324;12.344;2023-08-17T07:03:03;22.50;99.90
2825;DHT22;1420;51.324;12.344;2023-08-17T07:05:30;22.20;99.90
2825;DHT22;1420;51.324;12.344;2023-08-17T07:07:58;22.00;99.90
2825;DHT22;1420;51.324;12.344;2023-08-17T07:10:25;22.00;99.90
2825;DHT22;1420;51.324;12.344;2023-08-17T07:12:53;22.00;99.90
2825;DHT22;1420;51.324;12.344;2023-08-17T07:15:21;21.70;99.90
2825;DHT22;1420;51.324;12.344;2023-08-17T07:17:49;21.50;99.90
2825;DHT22;1420;51.324;12.344;2023-08-17T07:20:17;21.40;99.90
2825;DHT22;1420;51.324;12.344;2023-08-17T07:22:44;21.30;99.90
2825;DHT22;1420;51.324;12.344;2023-08-17T07:25:11;21.20;99.90
2825;DHT22;1420;51.324;12.344;2023-08-17T07:27:38;21.10;99.90
2825;DHT22;1420;51.324;12.344;2023-08-17T07:30:06;21.00;99.90
2825;DHT22;1420;51.324;12.344;2023-08-17T07:32:34;21.00;99.90
2825;DHT22;1420;51.324;12.344;2023-08-17T07:35:01;21.00;99.90
2825;DHT22;1420;51.324;12.344;2023-08-17T07:37:29;20.90;99.90
2825;DHT22;1420;51.324;12.344;2023-08-17T07:39:56;21.00;99.90
2825;DHT22;1420;51.324;12.344;2023-08-17T07:42:25;20.90;99.90
2825;DHT22;1420;51.324;12.344;2023-08-17T07:44:55;21.00;99.90
2825;DHT22;1420;51.324;12.344;2023-08-17T07:47:22;21.10;99.90
2825;DHT22;1420;51.324;12.344;2023-08-17T07:49:49;21.10;99.90
2825;DHT22;1420;51.324;12.344;2023-08-17T07:52:16;21.20;99.90
2825;DHT22;1420;51.324;12.344;2023-08-17T07:54:44;21.30;99.90
2825;DHT22;1420;51.324;12.344;2023-08-17T07:57:11;21.10;99.90
2825;DHT22;1420;51.324;12.344;2023-08-17T07:59:38;21.30;99.90
2825;DHT22;1420;51.324;12.344;2023-08-17T08:02:05;21.30;99.90
2825;DHT22;1420;51.324;12.344;2023-08-17T08:04:32;20.90;99.90
2825;DHT22;1420;51.324;12.344;2023-08-17T08:06:59;20.80;99.90
2825;DHT22;1420;51.324;12.344;2023-08-17T08:09:27;20.80;99.90
2825;DHT22;1420;51.324;12.344;2023-08-17T08:11:54;20.80;99.90
2825;DHT22;1420;51.324;12.344;2023-08-17T08:14:21;20.90;99.90
2825;DHT22;1420;51.324;12.344;2023-08-17T08:16:48;21.10;99.90
2825;DHT22;1420;51.324;12.344;2023-08-17T08:19:15;21.20;99.90
2825;DHT22;1420;51.324;12.344;2023-08-17T08:21:43;21.50;99.90
2825;DHT22;1420;51.324;12.344;2023-08-17T08:24:10;21.80;99.90
2825;DHT22;1420;51.324;12.344;2023-08-17T08:26:37;22.30;99.90
2825;DHT22;1420;51.324;12.344;2023-08-17T08:29:04;22.70;99.90
2825;DHT22;1420;51.324;12.344;2023-08-17T08:31:31;22.80;99.90
2825;DHT22;1420;51.324;12.344;2023-08-17T08:33:59;22.90;99.90
2825;DHT22;1420;51.324;12.344;2023-08-17T08:36:26;23.00;99.90
2825;DHT22;1420;51.324;12.344;2023-08-17T08:38:53;23.00;99.90
2825;DHT22;1420;51.324;12.344;2023-08-17T08:41:20;23.30;99.90
2825;DHT22;1420;51.324;12.344;2023-08-17T08:43:47;23.90;99.90
2825;DHT22;1420;51.324;12.344;2023-08-17T08:46:16;24.10;99.90
2825;DHT22;1420;51.324;12.344;2023-08-17T08:48:42;24.20;99.90
2825;DHT22;1420;51.324;12.344;2023-08-17T08:51:09;24.00;99.90
2825;DHT22;1420;51.324;12.344;2023-08-17T08:53:38;24.40;99.90
2825;DHT22;1420;51.324;12.344;2023-08-17T08:56:06;24.00;99.90
2825;DHT22;1420;51.324;12.344;2023-08-17T08:58:32;23.90;99.90
2825;DHT22;1420;51.324;12.344;2023-08-17T09:01:02;24.00;99.90
2825;DHT22;1420;51.324;12.344;2023-08-17T09:03:29;24.50;99.90
2825;DHT22;1420;51.324;12.344;2023-08-17T09:05:56;24.40;99.90
2825;DHT22;1420;51.324;12.344;2023-08-17T09:08:27;24.40;99.90
2825;DHT22;1420;51.324;12.344;2023-08-17T09:10:51;24.70;99.90
2825;DHT22;1420;51.324;12.344;2023-08-17T09:13:18;25.30;99.90
2825;DHT22;1420;51.324;12.344;2023-08-17T09:15:45;25.40;99.90
2825;DHT22;1420;51.324;12.344;2023-08-17T09:18:13;25.20;99.90
2825;DHT22;1420;51.324;12.344;2023-08-17T09:20:41;25.00;99.90
2825;DHT22;1420;51.324;12.344;2023-08-17T09:23:14;24.40;99.90
2825;DHT22;1420;51.324;12.344;2023-08-17T09:25:42;24.50;99.90
2825;DHT22;1420;51.324;12.344;2023-08-17T09:28:09;24.80;99.90
2825;DHT22;1420;51.324;12.344;2023-08-17T09:30:55;25.30;99.90
2825;DHT22;1420;51.324;12.344;2023-08-17T09:33:22;25.70;99.90
2825;DHT22;1420;51.324;12.344;2023-08-17T09:35:51;25.50;99.90
2825;DHT22;1420;51.324;12.344;2023-08-17T09:38:18;25.40;99.90
2825;DHT22;1420;51.324;12.344;2023-08-17T09:40:45;25.30;99.90
2825;DHT22;1420;51.324;12.344;2023-08-17T09:43:12;25.20;99.90
2825;DHT22;1420;51.324;12.344;2023-08-17T09:45:39;25.30;99.90
2825;DHT22;1420;51.324;12.344;2023-08-17T09:48:07;24.90;99.90
2825;DHT22;1420;51.324;12.344;2023-08-17T09:50:34;25.40;99.90
2825;DHT22;1420;51.324;12.344;2023-08-17T09:53:02;25.30;99.90
2825;DHT22;1420;51.324;12.344;2023-08-17T09:55:31;25.90;99.90
2825;DHT22;1420;51.324;12.344;2023-08-17T09:58:00;25.80;99.90
2825;DHT22;1420;51.324;12.344;2023-08-17T10:00:27;26.40;99.90
2825;DHT22;1420;51.324;12.344;2023-08-17T10:02:55;26.50;99.90
2825;DHT22;1420;51.324;12.344;2023-08-17T10:05:22;27.00;99.90
2825;DHT22;1420;51.324;12.344;2023-08-17T10:07:53;26.80;99.90
2825;DHT22;1420;51.324;12.344;2023-08-17T10:10:22;26.90;99.90
2825;DHT22;1420;51.324;12.344;2023-08-17T10:12:50;27.00;99.90
2825;DHT22;1420;51.324;12.344;2023-08-17T10:15:16;27.20;99.90
2825;DHT22;1420;51.324;12.344;2023-08-17T10:17:46;27.40;99.90
2825;DHT22;1420;51.324;12.344;2023-08-17T10:20:12;27.10;99.90
2825;DHT22;1420;51.324;12.344;2023-08-17T10:22:39;27.20;99.90
2825;DHT22;1420;51.324;12.344;2023-08-17T10:25:07;27.90;99.90
2825;DHT22;1420;51.324;12.344;2023-08-17T10:27:34;27.50;99.90
2825;DHT22;1420;51.324;12.344;2023-08-17T10:30:01;27.20;99.90
2825;DHT22;1420;51.324;12.344;2023-08-17T10:32:29;26.40;99.90
2825;DHT22;1420;51.324;12.344;2023-08-17T10:34:57;26.50;99.90
2825;DHT22;1420;51.324;12.344;2023-08-17T10:37:24;26.40;99.90
2825;DHT22;1420;51.324;12.344;2023-08-17T10:39:51;27.10;99.90
2825;DHT22;1420;51.324;12.344;2023-08-17T10:42:37;27.60;99.90
2825;DHT22;1420;51.324;12.344;2023-08-17T10:47:44;27.30;99.90
2825;DHT22;1420;51.324;12.344;2023-08-17T10:50:20;27.30;99.90
2825;DHT22;1420;51.324;12.344;2023-08-17T10:52:47;26.80;99.90
2825;DHT22;1420;51.324;12.344;2023-08-17T10:55:14;27.20;99.90
2825;DHT22;1420;51.324;12.344;2023-08-17T10:57:43;27.30;99.90
2825;DHT22;1420;51.324;12.344;2023-08-17T11:00:14;27.10;99.90
2825;DHT22;1420;51.324;12.344;2023-08-17T11:02:43;26.90;99.90
2825;DHT22;1420;51.324;12.344;2023-08-17T11:05:10;26.80;99.90
2825;DHT22;1420;51.324;12.344;2023-08-17T11:07:40;27.70;99.90
2825;DHT22;1420;51.324;12.344;2023-08-17T11:10:28;27.70;99.90
2825;DHT22;1420;51.324;12.344;2023-08-17T11:12:56;27.60;99.90
2825;DHT22;1420;51.324;12.344;2023-08-17T11:15:24;27.40;99.90
2825;DHT22;1420;51.324;12.344;2023-08-17T11:17:51;27.90;99.90
2825;DHT22;1420;51.324;12.344;2023-08-17T11:20:18;28.00;99.90
2825;DHT22;1420;51.324;12.344;2023-08-17T11:22:46;28.10;99.90
2825;DHT22;1420;51.324;12.344;2023-08-17T11:25:12;27.70;99.90
2825;DHT22;1420;51.324;12.344;2023-08-17T11:27:39;27.50;99.90
2825;DHT22;1420;51.324;12.344;2023-08-17T11:30:07;27.80;99.90
2825;DHT22;1420;51.324;12.344;2023-08-17T11:32:35;28.00;99.90
2825;DHT22;1420;51.324;12.344;2023-08-17T11:35:02;28.00;99.90
2825;DHT22;1420;51.324;12.344;2023-08-17T11:37:30;27.50;99.90
2825;DHT22;1420;51.324;12.344;2023-08-17T11:39:57;28.30;99.90
2825;DHT22;1420;51.324;12.344;2023-08-17T11:42:24;28.50;99.90
2825;DHT22;1420;51.324;12.344;2023-08-17T11:44:51;28.30;99.90
2825;DHT22;1420;51.324;12.344;2023-08-17T11:47:18;28.30;99.90
2825;DHT22;1420;51.324;12.344;2023-08-17T11:49:47;28.00;99.90
2825;DHT22;1420;51.324;12.344;2023-08-17T11:52:14;27.80;99.90
2825;DHT22;1420;51.324;12.344;2023-08-17T11:54:41;28.30;99.90
2825;DHT22;1420;51.324;12.344;2023-08-17T11:57:08;28.70;99.90
2825;DHT22;1420;51.324;12.344;2023-08-17T11:59:35;28.40;99.90
2825;DHT22;1420;51.324;12.344;2023-08-17T12:02:03;28.60;99.90
2825;DHT22;1420;51.324;12.344;2023-08-17T12:04:31;28.50;99.90
2825;DHT22;1420;51.324;12.344;2023-08-17T12:06:57;28.40;99.90
2825;DHT22;1420;51.324;12.344;2023-08-17T12:09:24;28.30;99.90
2825;DHT22;1420;51.324;12.344;2023-08-17T12:11:59;28.20;99.90
2825;DHT22;1420;51.324;12.344;2023-08-17T12:14:27;28.00;99.90
2825;DHT22;1420;51.324;12.344;2023-08-17T12:16:54;28.20;99.90
2825;DHT22;1420;51.324;12.344;2023-08-17T12:19:21;28.60;99.90
2825;DHT22;1420;51.324;12.344;2023-08-17T12:21:48;28.20;99.90
2825;DHT22;1420;51.324;12.344;2023-08-17T12:24:15;27.90;99.90
2825;DHT22;1420;51.324;12.344;2023-08-17T12:26:43;27.60;99.90
2825;DHT22;1420;51.324;12.344;2023-08-17T12:29:10;27.30;99.90
2825;DHT22;1420;51.324;12.344;2023-08-17T12:31:38;27.90;99.90
2825;DHT22;1420;51.324;12.344;2023-08-17T12:34:05;27.80;99.90
2825;DHT22;1420;51.324;12.344;2023-08-17T12:36:33;28.10;99.90
2825;DHT22;1420;51.324;12.344;2023-08-17T12:39:01;28.10;99.90
2825;DHT22;1420;51.324;12.344;2023-08-17T12:41:29;28.00;99.90
2825;DHT22;1420;51.324;12.344;2023-08-17T12:43:56;27.90;99.90
2825;DHT22;1420;51.324;12.344;2023-08-17T12:46:25;27.80;99.90
2825;DHT22;1420;51.324;12.344;2023-08-17T12:48:52;28.20;99.90
2825;DHT22;1420;51.324;12.344;2023-08-17T12:51:20;28.10;99.90
2825;DHT22;1420;51.324;12.344;2023-08-17T12:53:47;27.80;99.90
2825;DHT22;1420;51.324;12.344;2023-08-17T12:56:15;28.30;99.90
2825;DHT22;1420;51.324;12.344;2023-08-17T12:58:43;28.60;99.90
2825;DHT22;1420;51.324;12.344;2023-08-17T13:01:11;28.70;99.90
2825;DHT22;1420;51.324;12.344;2023-08-17T13:03:39;28.80;99.90
2825;DHT22;1420;51.324;12.344;2023-08-17T13:06:07;28.70;99.90
2825;DHT22;1420;51.324;12.344;2023-08-17T13:08:33;28.80;99.90
2825;DHT22;1420;51.324;12.344;2023-08-17T13:11:01;28.60;99.90
2825;DHT22;1420;51.324;12.344;2023-08-17T13:13:28;28.70;99.90
2825;DHT22;1420;51.324;12.344;2023-08-17T13:15:55;28.80;99.90
2825;DHT22;1420;51.324;12.344;2023-08-17T13:18:22;28.80;99.90
2825;DHT22;1420;51.324;12.344;2023-08-17T13:20:50;28.70;99.90
2825;DHT22;1420;51.324;12.344;2023-08-17T13:23:18;28.60;99.90
2825;DHT22;1420;51.324;12.344;2023-08-17T13:25:45;28.60;99.90
2825;DHT22;1420;51.324;12.344;2023-08-17T13:28:12;28.30;99.90
2825;DHT22;1420;51.324;12.344;2023-08-17T13:30:39;28.30;99.90
2825;DHT22;1420;51.324;12.344;2023-08-17T13:33:06;28.30;99.90
2825;DHT22;1420;51.324;12.344;2023-08-17T13:35:34;28.60;99.90
2825;DHT22;1420;51.324;12.344;2023-08-17T13:38:01;28.70;99.90
2825;DHT22;1420;51.324;12.344;2023-08-17T13:40:28;28.70;99.90
2825;DHT22;1420;51.324;12.344;2023-08-17T13:42:55;28.90;99.90
2825;DHT22;1420;51.324;12.344;2023-08-17T13:45:22;28.90;99.90
2825;DHT22;1420;51.324;12.344;2023-08-17T13:47:50;28.70;99.90
2825;DHT22;1420;51.324;12.344;2023-08-17T13:50:17;28.40;99.90
2825;DHT22;1420;51.324;12.344;2023-08-17T13:52:44;28.30;99.90
2825;DHT22;1420;51.324;12.344;2023-08-17T13:55:11;28.20;99.90
2825;DHT22;1420;51.324;12.344;2023-08-17T13:57:39;28.10;99.90
2825;DHT22;1420;51.324;12.344;2023-08-17T14:00:07;28.00;99.90
2825;DHT22;1420;51.324;12.344;2023-08-17T14:02:34;27.80;99.90
2825;DHT22;1420;51.324;12.344;2023-08-17T14:05:01;27.80;99.90
2825;DHT22;1420;51.324;12.344;2023-08-17T14:07:29;27.60;99.90
2825;DHT22;1420;51.324;12.344;2023-08-17T14:09:57;27.60;99.90
2825;DHT22;1420;51.324;12.344;2023-08-17T14:12:25;27.60;99.90
2825;DHT22;1420;51.324;12.344;2023-08-17T14:14:52;27.80;99.90
2825;DHT22;1420;51.324;12.344;2023-08-17T14:17:19;27.80;99.90
2825;DHT22;1420;51.324;12.344;2023-08-17T14:19:46;27.60;99.90
2825;DHT22;1420;51.324;12.344;2023-08-17T14:22:13;27.50;99.90
2825;DHT22;1420;51.324;12.344;2023-08-17T14:24:40;27.50;99.90
2825;DHT22;1420;51.324;12.344;2023-08-17T14:27:08;27.50;99.90
2825;DHT22;1420;51.324;12.344;2023-08-17T14:29:35;27.40;99.90
2825;DHT22;1420;51.324;12.344;2023-08-17T14:32:02;27.30;99.90
2825;DHT22;1420;51.324;12.344;2023-08-17T14:34:29;27.30;99.90
2825;DHT22;1420;51.324;12.344;2023-08-17T14:36:57;27.30;99.90
2825;DHT22;1420;51.324;12.344;2023-08-17T14:39:25;27.20;99.90
2825;DHT22;1420;51.324;12.344;2023-08-17T14:41:53;27.10;99.90
2825;DHT22;1420;51.324;12.344;2023-08-17T14:44:21;27.20;99.90
2825;DHT22;1420;51.324;12.344;2023-08-17T14:46:49;27.20;99.90
2825;DHT22;1420;51.324;12.344;2023-08-17T14:49:17;27.20;99.90
2825;DHT22;1420;51.324;12.344;2023-08-17T14:51:45;27.20;99.90
2825;DHT22;1420;51.324;12.344;2023-08-17T14:54:12;27.10;99.90
2825;DHT22;1420;51.324;12.344;2023-08-17T14:56:40;27.00;99.90
2825;DHT22;1420;51.324;12.344;2023-08-17T14:59:08;27.00;99.90
2825;DHT22;1420;51.324;12.344;2023-08-17T15:01:36;27.00;99.90
2825;DHT22;1420;51.324;12.344;2023-08-17T15:04:04;27.00;99.90
2825;DHT22;1420;51.324;12.344;2023-08-17T15:06:31;27.00;99.90
2825;DHT22;1420;51.324;12.344;2023-08-17T15:08:58;26.80;99.90
2825;DHT22;1420;51.324;12.344;2023-08-17T15:11:25;26.80;99.90
2825;DHT22;1420;51.324;12.344;2023-08-17T15:13:52;26.50;99.90
2825;DHT22;1420;51.324;12.344;2023-08-17T15:16:20;26.40;99.90
2825;DHT22;1420;51.324;12.344;2023-08-17T15:18:47;26.50;99.90
2825;DHT22;1420;51.324;12.344;2023-08-17T15:21:14;26.40;99.90
2825;DHT22;1420;51.324;12.344;2023-08-17T15:23:41;26.20;99.90
2825;DHT22;1420;51.324;12.344;2023-08-17T15:26:08;26.10;99.90
2825;DHT22;1420;51.324;12.344;2023-08-17T15:28:36;26.10;99.90
2825;DHT22;1420;51.324;12.344;2023-08-17T15:31:03;26.00;99.90
2825;DHT22;1420;51.324;12.344;2023-08-17T15:33:31;25.90;99.90
2825;DHT22;1420;51.324;12.344;2023-08-17T15:35:58;25.90;99.90
2825;DHT22;1420;51.324;12.344;2023-08-17T15:38:26;25.80;99.90
2825;DHT22;1420;51.324;12.344;2023-08-17T15:40:54;25.80;99.90
2825;DHT22;1420;51.324;12.344;2023-08-17T15:43:21;25.80;99.90
2825;DHT22;1420;51.324;12.344;2023-08-17T15:45:50;25.80;99.90
2825;DHT22;1420;51.324;12.344;2023-08-17T15:48:18;25.70;99.90
2825;DHT22;1420;51.324;12.344;2023-08-17T15:50:45;25.70;99.90